createdAt,value
2023-01-23T00:00:40.928Z,41.47
2023-01-23T00:03:18.819Z,42.80
2023-01-23T00:05:45.652Z,43.65
2023-01-23T00:08:12.761Z,43.25
2023-01-23T00:10:39.553Z,44.80
2023-01-23T00:13:06.686Z,41.38
2023-01-23T00:15:33.544Z,42.20
2023-01-23T00:18:00.643Z,41.05
2023-01-23T00:20:27.402Z,39.30
2023-01-23T00:22:54.959Z,41.15
2023-01-23T00:25:21.756Z,35.97
2023-01-23T00:27:48.890Z,37.75
2023-01-23T00:30:16.276Z,37.78
2023-01-23T00:32:43.443Z,36.15
2023-01-23T00:35:10.422Z,36.33
2023-01-23T00:37:37.556Z,35.75
2023-01-23T00:40:05.007Z,34.83
2023-01-23T00:42:32.179Z,35.13
2023-01-23T00:44:58.973Z,35.30
2023-01-23T00:47:26.127Z,33.40
2023-01-23T00:49:55.200Z,35.13
2023-01-23T00:52:22.352Z,31.95
2023-01-23T00:54:49.251Z,33.00
2023-01-23T00:57:16.360Z,35.30
2023-01-23T00:59:43.168Z,33.10
2023-01-23T01:02:10.263Z,30.83
2023-01-23T01:04:37.041Z,29.23
2023-01-23T01:07:04.259Z,33.78
2023-01-23T01:09:31.035Z,32.17
2023-01-23T01:11:58.366Z,31.75
2023-01-23T01:14:25.112Z,32.30
2023-01-23T01:16:52.121Z,31.73
2023-01-23T01:19:19.254Z,29.08
2023-01-23T01:21:46.354Z,33.65
2023-01-23T01:24:13.144Z,32.78
2023-01-23T01:26:40.625Z,27.10
2023-01-23T01:29:07.404Z,29.50
2023-01-23T01:31:34.625Z,31.88
2023-01-23T01:34:01.592Z,29.95
2023-01-23T01:36:28.710Z,32.25
2023-01-23T01:38:55.542Z,28.20
2023-01-23T01:41:22.599Z,27.90
2023-01-23T01:43:49.451Z,31.73
2023-01-23T01:46:20.430Z,28.52
2023-01-23T01:49:19.671Z,30.92
2023-01-23T01:52:01.338Z,28.27
2023-01-23T01:54:34.093Z,27.15
2023-01-23T01:57:01.203Z,30.63
2023-01-23T01:59:32.200Z,31.25
2023-01-23T02:02:21.543Z,32.30
2023-01-23T02:04:49.798Z,26.83
2023-01-23T02:07:54.518Z,31.70
2023-01-23T02:10:21.960Z,29.35
2023-01-23T02:12:50.285Z,27.88
2023-01-23T02:15:17.342Z,27.70
2023-01-23T02:17:44.620Z,28.40
2023-01-23T02:20:11.446Z,28.52
2023-01-23T02:23:02.776Z,27.92
2023-01-23T02:25:32.985Z,28.23
2023-01-23T02:28:01.415Z,24.85
2023-01-23T02:30:28.417Z,25.55
2023-01-23T02:33:06.335Z,28.25
2023-01-23T02:35:33.157Z,27.77
2023-01-23T02:38:00.789Z,27.70
2023-01-23T02:40:32.447Z,27.42
2023-01-23T02:42:59.821Z,25.73
2023-01-23T02:45:27.519Z,27.15
2023-01-23T02:47:54.672Z,28.52
2023-01-23T02:50:21.691Z,27.63
2023-01-23T02:52:50.982Z,27.92
2023-01-23T02:55:17.964Z,28.50
2023-01-23T02:57:45.283Z,26.88
2023-01-23T03:00:20.893Z,28.33
2023-01-23T03:02:51.616Z,25.83
2023-01-23T03:05:18.524Z,29.33
2023-01-23T03:07:45.602Z,26.70
2023-01-23T03:10:12.541Z,25.80
2023-01-23T03:12:43.410Z,26.83
2023-01-23T03:15:10.752Z,26.20
2023-01-23T03:17:37.995Z,28.35
2023-01-23T03:20:06.296Z,24.65
2023-01-23T03:22:33.397Z,24.40
2023-01-23T03:25:01.415Z,26.58
2023-01-23T03:27:28.550Z,23.63
2023-01-23T03:30:13.751Z,26.45
2023-01-23T03:32:41.042Z,29.20
2023-01-23T03:35:10.199Z,26.27
2023-01-23T03:37:37.326Z,27.83
2023-01-23T03:40:22.732Z,26.10
2023-01-23T03:45:16.573Z,28.05
2023-01-23T03:47:43.915Z,27.35
2023-01-23T03:50:11.349Z,27.85
2023-01-23T03:52:38.547Z,28.08
2023-01-23T03:55:05.683Z,29.40
2023-01-23T03:57:32.730Z,29.17
2023-01-23T03:59:59.477Z,30.05
2023-01-23T04:02:26.634Z,27.27
2023-01-23T04:04:53.632Z,30.23
2023-01-23T04:07:20.674Z,30.00
2023-01-23T04:09:47.944Z,30.92
2023-01-23T04:12:15.170Z,27.55
2023-01-23T04:14:42.187Z,28.55
2023-01-23T04:17:09.358Z,29.40
2023-01-23T04:19:36.144Z,25.55
2023-01-23T04:22:03.396Z,26.35
2023-01-23T04:24:30.134Z,27.27
2023-01-23T04:26:57.297Z,28.98
2023-01-23T04:29:24.056Z,25.00
2023-01-23T04:31:51.164Z,27.25
2023-01-23T04:34:17.918Z,29.83
2023-01-23T04:36:45.040Z,26.95
2023-01-23T04:39:11.796Z,25.90
2023-01-23T04:41:38.882Z,29.17
2023-01-23T04:44:20.748Z,27.85
2023-01-23T04:46:49.987Z,28.38
2023-01-23T04:49:18.653Z,26.40
2023-01-23T04:51:48.050Z,27.23
2023-01-23T04:54:14.840Z,26.75
2023-01-23T04:56:42.411Z,28.17
2023-01-23T04:59:09.187Z,28.83
2023-01-23T05:01:36.707Z,27.63
2023-01-23T05:04:03.603Z,27.48
2023-01-23T05:06:30.748Z,27.33
2023-01-23T05:08:57.527Z,26.23
2023-01-23T05:11:24.667Z,22.10
2023-01-23T05:13:51.436Z,28.38
2023-01-23T05:16:18.512Z,27.35
2023-01-23T05:18:45.259Z,24.83
2023-01-23T05:21:12.316Z,28.05
2023-01-23T05:23:39.108Z,25.55
2023-01-23T05:26:06.229Z,23.25
2023-01-23T05:28:33.043Z,24.60
2023-01-23T05:31:00.203Z,25.67
2023-01-23T05:33:27.067Z,23.55
2023-01-23T05:35:54.135Z,24.52
2023-01-23T05:38:20.923Z,24.27
2023-01-23T05:40:48.060Z,23.58
2023-01-23T05:43:15.092Z,25.75
2023-01-23T05:45:42.302Z,20.77
2023-01-23T05:48:09.159Z,23.30
2023-01-23T05:50:36.229Z,22.45
2023-01-23T05:53:03.063Z,22.73
2023-01-23T05:55:30.211Z,22.20
2023-01-23T05:57:57.095Z,23.75
2023-01-23T06:00:24.219Z,21.80
2023-01-23T06:02:51.067Z,24.73
2023-01-23T06:05:18.142Z,18.23
2023-01-23T06:07:44.891Z,22.45
2023-01-23T06:10:11.943Z,21.58
2023-01-23T06:12:38.685Z,22.10
2023-01-23T06:15:06.304Z,22.73
2023-01-23T06:17:33.077Z,20.67
2023-01-23T06:20:00.189Z,22.70
2023-01-23T06:22:27.029Z,21.38
2023-01-23T06:24:54.102Z,18.67
2023-01-23T06:27:20.847Z,20.88
2023-01-23T06:29:47.964Z,20.42
2023-01-23T06:32:14.729Z,19.85
2023-01-23T06:34:41.810Z,19.27
2023-01-23T06:37:08.598Z,20.52
2023-01-23T06:39:35.721Z,19.10
2023-01-23T06:42:02.547Z,19.55
2023-01-23T06:44:29.606Z,23.27
2023-01-23T06:46:56.419Z,18.45
2023-01-23T06:49:23.525Z,20.75
2023-01-23T06:51:50.273Z,23.17
2023-01-23T06:54:17.358Z,22.13
2023-01-23T06:56:44.122Z,21.88
2023-01-23T06:59:11.246Z,22.40
2023-01-23T07:01:38.014Z,19.35
2023-01-23T07:04:05.153Z,25.05
2023-01-23T07:06:31.931Z,25.42
2023-01-23T07:08:59.054Z,19.80
2023-01-23T07:11:25.878Z,22.55
2023-01-23T07:13:52.960Z,20.40
2023-01-23T07:16:20.176Z,25.55
2023-01-23T07:18:47.255Z,22.67
2023-01-23T07:21:14.003Z,25.55
2023-01-23T07:23:41.039Z,25.02
2023-01-23T07:26:09.712Z,26.65
2023-01-23T07:28:37.461Z,25.65
2023-01-23T07:31:04.455Z,25.63
2023-01-23T07:33:31.724Z,23.92
2023-01-23T07:35:58.512Z,25.00
2023-01-23T07:38:25.980Z,28.80
2023-01-23T07:40:52.950Z,29.25
2023-01-23T07:43:20.087Z,28.08
2023-01-23T07:45:46.880Z,25.77
2023-01-23T07:48:13.959Z,24.75
2023-01-23T07:50:40.783Z,25.08
2023-01-23T07:53:07.921Z,27.92
2023-01-23T07:55:34.932Z,28.05
2023-01-23T07:58:02.023Z,29.40
2023-01-23T08:00:30.283Z,25.92
2023-01-23T08:02:57.804Z,29.58
2023-01-23T08:05:24.756Z,27.40
2023-01-23T08:08:00.641Z,30.42
2023-01-23T08:10:34.452Z,22.98
2023-01-23T08:13:01.536Z,24.35
2023-01-23T08:15:28.433Z,24.63
2023-01-23T08:17:55.528Z,28.52
2023-01-23T08:20:23.268Z,28.33
2023-01-23T08:22:50.399Z,28.58
2023-01-23T08:25:17.184Z,26.38
2023-01-23T08:27:44.289Z,28.58
2023-01-23T08:30:11.535Z,29.05
2023-01-23T08:32:38.662Z,26.13
2023-01-23T08:35:06.046Z,26.42
2023-01-23T08:37:34.479Z,27.70
2023-01-23T08:40:01.345Z,27.90
2023-01-23T08:42:28.425Z,24.10
2023-01-23T08:44:55.718Z,26.13
2023-01-23T08:47:22.899Z,28.38
2023-01-23T08:49:49.661Z,25.30
2023-01-23T08:52:16.957Z,23.73
2023-01-23T08:54:43.785Z,24.45
2023-01-23T08:57:10.889Z,24.80
2023-01-23T08:59:37.660Z,25.70
2023-01-23T09:02:04.769Z,25.80
2023-01-23T09:04:31.539Z,31.20
2023-01-23T09:06:58.645Z,22.50
2023-01-23T09:09:25.657Z,24.98
2023-01-23T09:11:54.306Z,26.42
2023-01-23T09:14:21.143Z,21.85
2023-01-23T09:16:48.301Z,24.13
2023-01-23T09:19:15.811Z,25.30
2023-01-23T09:21:43.004Z,23.58
2023-01-23T09:24:09.816Z,26.55
2023-01-23T09:26:37.655Z,23.48
2023-01-23T09:29:04.527Z,22.33
2023-01-23T09:31:31.696Z,22.70
2023-01-23T09:33:58.555Z,24.35
2023-01-23T09:36:41.799Z,25.48
2023-01-23T09:39:09.500Z,22.52
2023-01-23T09:41:36.661Z,23.42
2023-01-23T09:44:29.600Z,22.30
2023-01-23T09:47:04.841Z,24.20
2023-01-23T09:49:47.035Z,25.15
2023-01-23T09:52:19.417Z,23.88
2023-01-23T09:54:47.916Z,27.58
2023-01-23T09:57:18.694Z,23.95
2023-01-23T10:00:00.644Z,20.80
2023-01-23T10:02:28.215Z,26.23
2023-01-23T10:04:56.059Z,24.98
2023-01-23T10:07:35.155Z,23.42
2023-01-23T10:10:32.574Z,26.65
2023-01-23T10:13:11.667Z,24.52
2023-01-23T10:16:17.491Z,25.83
2023-01-23T10:18:57.323Z,27.48
2023-01-23T10:21:33.338Z,25.77
2023-01-23T10:24:22.440Z,25.83
2023-01-23T10:26:50.334Z,24.27
2023-01-23T10:29:20.551Z,26.90
2023-01-23T10:31:48.820Z,29.70
2023-01-23T10:34:20.376Z,26.88
2023-01-23T10:37:07.786Z,26.48
2023-01-23T10:39:59.854Z,27.60
2023-01-23T10:42:27.018Z,28.23
2023-01-23T10:44:54.297Z,28.52
2023-01-23T10:47:33.671Z,28.67
2023-01-23T10:50:01.649Z,26.95
2023-01-23T10:52:30.556Z,27.98
2023-01-23T10:54:57.590Z,29.65
2023-01-23T10:57:29.640Z,25.23
2023-01-23T11:00:04.155Z,29.20
2023-01-23T11:02:32.749Z,30.63
2023-01-23T11:05:00.370Z,27.90
2023-01-23T11:07:31.593Z,26.92
2023-01-23T11:10:00.355Z,27.00
2023-01-23T11:12:29.001Z,32.38
2023-01-23T11:15:23.963Z,25.98
2023-01-23T11:17:51.827Z,28.23
2023-01-23T11:20:30.717Z,27.73
2023-01-23T11:23:10.970Z,28.73
2023-01-23T11:25:42.204Z,29.77
2023-01-23T11:28:35.423Z,31.85
2023-01-23T11:31:15.982Z,29.70
2023-01-23T11:33:52.176Z,26.33
2023-01-23T11:36:19.621Z,31.42
2023-01-23T11:39:02.201Z,29.73
2023-01-23T11:41:30.956Z,30.00
2023-01-23T11:43:57.781Z,28.42
2023-01-23T11:46:40.316Z,30.48
2023-01-23T11:49:22.529Z,33.03
2023-01-23T11:52:03.057Z,32.67
2023-01-23T11:54:58.631Z,30.63
2023-01-23T11:57:59.695Z,29.85
2023-01-23T12:00:48.667Z,30.63
2023-01-23T12:03:53.532Z,30.25
2023-01-23T12:06:41.528Z,30.17
2023-01-23T12:09:16.725Z,30.60
2023-01-23T12:12:05.442Z,36.22
2023-01-23T12:14:38.405Z,28.73
2023-01-23T12:17:27.971Z,32.15
2023-01-23T12:20:10.858Z,34.70
2023-01-23T12:22:50.569Z,30.10
2023-01-23T12:25:34.331Z,33.30
2023-01-23T12:28:19.377Z,31.42
2023-01-23T12:31:09.921Z,30.73
2023-01-23T12:33:47.421Z,35.92
2023-01-23T12:36:20.890Z,31.13
2023-01-23T12:39:11.991Z,34.53
2023-01-23T12:41:43.928Z,36.90
2023-01-23T12:44:25.346Z,35.45
2023-01-23T12:47:07.886Z,34.75
2023-01-23T12:50:22.395Z,34.75
2023-01-23T12:52:56.345Z,34.95
2023-01-23T12:55:26.138Z,36.85
2023-01-23T12:58:09.130Z,31.83
2023-01-23T13:01:03.903Z,34.42
2023-01-23T13:03:45.944Z,33.42
2023-01-23T13:06:28.674Z,31.00
2023-01-23T13:09:18.948Z,34.03
2023-01-23T13:12:25.014Z,29.58
2023-01-23T13:15:14.272Z,35.65
2023-01-23T13:17:42.163Z,34.08
2023-01-23T13:20:52.780Z,31.55
2023-01-23T13:23:28.527Z,32.53
2023-01-23T13:26:20.968Z,31.73
2023-01-23T13:28:49.526Z,31.58
2023-01-23T13:31:34.634Z,31.40
2023-01-23T13:34:22.558Z,33.17
2023-01-23T13:36:51.869Z,33.83
2023-01-23T13:39:22.945Z,30.02
2023-01-23T13:42:10.200Z,31.83
2023-01-23T13:44:42.097Z,34.60
2023-01-23T14:21:52.377Z,30.40
2023-01-23T14:24:24.300Z,28.55
2023-01-23T14:26:53.303Z,29.90
2023-01-23T14:29:22.345Z,30.88
2023-01-23T14:31:51.215Z,29.70
2023-01-23T14:34:22.562Z,29.27
2023-01-23T14:36:59.647Z,30.60
2023-01-23T14:39:27.695Z,35.70
2023-01-23T14:41:56.612Z,30.73
2023-01-23T14:44:27.774Z,30.63
2023-01-23T14:46:55.925Z,35.22
2023-01-23T14:49:27.727Z,30.55
2023-01-23T14:52:05.968Z,31.25
2023-01-23T14:54:34.446Z,30.65
2023-01-23T14:57:02.170Z,35.03
2023-01-23T14:59:31.620Z,32.17
2023-01-23T15:02:01.987Z,29.27
2023-01-23T15:04:32.060Z,33.50
2023-01-23T15:07:00.016Z,33.58
2023-01-23T15:09:30.213Z,33.10
2023-01-23T15:12:07.702Z,28.98
2023-01-23T15:14:39.230Z,35.97
2023-01-23T15:17:07.984Z,30.80
2023-01-23T15:19:35.931Z,30.73
2023-01-23T15:22:25.734Z,35.10
2023-01-23T15:24:52.535Z,34.30
2023-01-23T15:27:27.219Z,32.97
2023-01-23T15:30:40.391Z,32.20
2023-01-23T15:33:24.212Z,33.55
2023-01-23T15:35:51.002Z,31.42
2023-01-23T15:38:18.101Z,30.65
2023-01-23T15:40:44.843Z,37.20
2023-01-23T15:43:18.526Z,36.97
2023-01-23T15:45:46.404Z,31.63
2023-01-23T15:48:13.502Z,34.95
2023-01-23T15:50:40.569Z,34.17
2023-01-23T15:53:12.128Z,38.50
2023-01-23T15:55:38.940Z,35.85
2023-01-23T15:58:06.039Z,36.35
2023-01-23T16:00:32.783Z,36.85
2023-01-23T16:02:59.938Z,34.72
2023-01-23T16:05:32.244Z,38.60
2023-01-23T16:08:01.318Z,37.22
2023-01-23T16:10:30.033Z,37.60
2023-01-23T16:12:57.631Z,39.47
2023-01-23T16:15:28.511Z,35.90
2023-01-23T16:17:56.161Z,40.70
2023-01-23T16:20:27.832Z,35.03
2023-01-23T16:22:57.846Z,38.03
2023-01-23T16:25:43.032Z,37.25
2023-01-23T16:28:30.777Z,34.95
2023-01-23T16:30:57.611Z,41.00
2023-01-23T16:33:25.898Z,38.08
2023-01-23T16:35:52.703Z,39.63
2023-01-23T16:38:23.721Z,36.35
2023-01-23T16:40:53.083Z,39.83
2023-01-23T16:43:20.999Z,39.92
2023-01-23T16:45:47.875Z,40.15
2023-01-23T16:48:25.423Z,37.40
2023-01-23T16:50:54.564Z,40.85
2023-01-23T16:53:35.557Z,39.75
2023-01-23T16:56:02.383Z,43.80
2023-01-23T16:58:35.300Z,39.00
2023-01-23T17:01:04.412Z,38.63
2023-01-23T17:03:35.768Z,41.58
2023-01-23T17:06:02.525Z,44.65
2023-01-23T17:08:29.637Z,42.15
2023-01-23T17:10:58.727Z,42.35
2023-01-23T17:13:25.982Z,44.08
2023-01-23T17:15:53.714Z,44.25
2023-01-23T17:18:23.282Z,43.03
2023-01-23T17:20:50.061Z,44.20
2023-01-23T17:23:17.214Z,44.20
2023-01-23T17:25:59.028Z,45.75
2023-01-23T17:28:27.857Z,43.90
2023-01-23T17:30:54.647Z,43.60
2023-01-23T17:33:23.501Z,45.20
2023-01-23T17:35:50.460Z,50.30
2023-01-23T17:38:21.382Z,48.30
2023-01-23T17:40:48.563Z,44.75
2023-01-23T17:43:16.158Z,47.05
2023-01-23T17:45:43.970Z,52.42
2023-01-23T17:48:18.803Z,50.08
2023-01-23T17:50:45.987Z,52.72
2023-01-23T17:53:16.455Z,46.95
2023-01-23T17:55:46.948Z,50.13
2023-01-23T17:58:14.492Z,53.67
2023-01-23T18:00:42.040Z,50.30
2023-01-23T18:03:12.552Z,51.55
2023-01-23T18:05:39.582Z,50.83
2023-01-23T18:08:06.731Z,46.20
2023-01-23T18:10:34.018Z,52.45
2023-01-23T18:13:26.056Z,51.38
2023-01-23T18:16:11.803Z,48.33
2023-01-23T18:18:40.113Z,47.80
2023-01-23T18:21:10.337Z,51.42
2023-01-23T18:23:37.901Z,47.90
2023-01-23T18:26:04.797Z,50.65
2023-01-23T18:28:38.743Z,49.45
2023-01-23T18:31:14.433Z,49.95
2023-01-23T18:34:19.937Z,45.92
2023-01-23T18:36:50.132Z,50.00
2023-01-23T18:39:34.673Z,45.85
2023-01-23T18:42:10.971Z,46.50
2023-01-23T18:44:38.156Z,48.10
2023-01-23T18:47:10.947Z,45.30
2023-01-23T18:49:38.356Z,46.65
2023-01-23T18:52:09.376Z,44.72
2023-01-23T18:54:45.360Z,48.58
2023-01-23T18:57:15.892Z,45.45
2023-01-23T19:00:15.367Z,43.20
2023-01-23T19:02:52.659Z,43.50
2023-01-23T19:05:27.824Z,47.08
2023-01-23T19:07:55.169Z,44.42
2023-01-23T19:10:24.001Z,40.65
2023-01-23T19:13:24.781Z,45.53
2023-01-23T19:15:54.624Z,45.28
2023-01-23T19:18:42.953Z,43.65
2023-01-23T19:21:14.228Z,43.75
2023-01-23T19:23:50.347Z,42.47
2023-01-23T19:26:17.894Z,41.72
2023-01-23T19:28:45.516Z,40.20
2023-01-23T19:31:37.305Z,40.67
2023-01-23T19:34:04.344Z,40.47
2023-01-23T19:36:32.521Z,38.20
2023-01-23T19:39:03.017Z,43.33
2023-01-23T19:41:33.162Z,38.60
2023-01-23T19:44:02.959Z,40.75
2023-01-23T19:46:31.422Z,36.92
2023-01-23T19:48:59.252Z,43.28
2023-01-23T19:51:26.634Z,36.53
2023-01-23T19:53:53.708Z,35.17
2023-01-23T19:56:20.876Z,38.40
2023-01-23T19:58:47.900Z,34.40
2023-01-23T20:01:24.526Z,34.05
2023-01-23T20:03:51.917Z,35.20
2023-01-23T20:06:19.177Z,32.67
2023-01-23T20:08:45.956Z,37.85
2023-01-23T20:11:12.916Z,33.00
2023-01-23T20:13:42.840Z,32.78
2023-01-23T20:16:20.190Z,36.63
2023-01-23T20:18:48.248Z,38.35
2023-01-23T20:21:16.010Z,33.40
2023-01-23T20:23:43.398Z,35.08
2023-01-23T20:26:10.657Z,33.95
2023-01-23T20:28:37.880Z,37.63
2023-01-23T20:31:08.878Z,34.00
2023-01-23T20:33:36.168Z,30.52
2023-01-23T20:36:03.052Z,29.35
2023-01-23T20:38:30.285Z,32.80
2023-01-23T20:41:07.639Z,31.42
2023-01-23T20:43:34.901Z,32.65
2023-01-23T20:46:07.395Z,30.73
2023-01-23T20:48:38.770Z,30.00
2023-01-23T20:51:07.848Z,27.17
2023-01-23T20:53:39.493Z,33.13
2023-01-23T20:56:14.058Z,30.45
2023-01-23T20:59:02.638Z,32.10
2023-01-23T21:01:51.290Z,26.17
2023-01-23T21:04:18.691Z,28.20
2023-01-23T21:06:45.567Z,32.28
2023-01-23T21:09:12.670Z,26.85
2023-01-23T21:11:39.486Z,25.88
2023-01-23T21:14:06.608Z,28.08
2023-01-23T21:16:33.437Z,25.98
2023-01-23T21:19:00.556Z,26.45
2023-01-23T21:21:27.456Z,28.70
2023-01-23T21:23:54.608Z,26.80
2023-01-23T21:26:23.581Z,25.83
2023-01-23T21:28:52.092Z,28.20
2023-01-23T21:31:26.949Z,27.58
2023-01-23T21:33:54.642Z,28.60
2023-01-23T21:36:23.213Z,24.80
2023-01-23T21:38:51.454Z,26.10
2023-01-23T21:41:18.442Z,24.05
2023-01-23T21:43:45.520Z,26.55
2023-01-23T21:46:12.305Z,29.63
2023-01-23T21:48:39.569Z,24.40
2023-01-23T21:51:07.698Z,23.20
2023-01-23T21:53:36.304Z,24.70
2023-01-23T21:56:03.552Z,24.63
2023-01-23T21:58:30.812Z,24.40
2023-01-23T22:01:21.282Z,24.52
2023-01-23T22:03:48.511Z,29.60
2023-01-23T22:06:15.308Z,28.67
2023-01-23T22:08:42.364Z,23.38
2023-01-23T22:11:09.464Z,27.70
2023-01-23T22:13:36.585Z,26.52
2023-01-23T22:16:03.623Z,23.70
2023-01-23T22:18:30.931Z,24.20
2023-01-23T22:20:58.872Z,25.33
2023-01-23T22:23:26.317Z,29.38
2023-01-23T22:25:55.917Z,28.83
2023-01-23T22:28:23.308Z,24.20
2023-01-23T22:30:50.123Z,24.63
2023-01-23T22:33:17.635Z,27.52
2023-01-23T22:35:44.481Z,24.48
2023-01-23T22:38:12.788Z,26.75
2023-01-23T22:40:39.658Z,26.17
2023-01-23T22:43:07.091Z,26.05
2023-01-23T22:45:34.019Z,24.02
2023-01-23T22:48:01.168Z,24.00
2023-01-23T22:50:28.681Z,24.52
2023-01-23T22:52:55.754Z,24.70
2023-01-23T22:55:23.262Z,22.15
2023-01-23T22:57:52.667Z,25.85
2023-01-23T23:00:19.761Z,26.88
2023-01-23T23:02:46.926Z,24.88
2023-01-23T23:05:13.885Z,26.98
2023-01-23T23:07:41.037Z,23.23
2023-01-23T23:10:08.839Z,25.10
2023-01-23T23:12:35.909Z,24.17
2023-01-23T23:15:03.243Z,27.88
2023-01-23T23:17:30.501Z,26.63
2023-01-23T23:19:57.287Z,24.90
2023-01-23T23:22:24.365Z,26.48
2023-01-23T23:24:51.168Z,26.25
2023-01-23T23:27:18.209Z,28.55
2023-01-23T23:29:45.011Z,30.80
2023-01-23T23:32:12.109Z,27.75
2023-01-23T23:34:38.919Z,27.63
2023-01-23T23:37:05.987Z,24.80
2023-01-23T23:39:32.777Z,24.92
2023-01-23T23:41:59.873Z,25.17
2023-01-23T23:44:26.591Z,26.52
2023-01-23T23:46:53.721Z,24.00
2023-01-23T23:49:20.667Z,25.48
2023-01-23T23:51:47.776Z,24.30
2023-01-23T23:54:14.540Z,24.40
2023-01-23T23:56:41.657Z,26.95
2023-01-23T23:59:15.770Z,24.90
